createdAt,value
2019-02-27T00:01:01.984Z,99.90
2019-02-27T00:03:36.091Z,99.90
2019-02-27T00:06:17.143Z,99.90
2019-02-27T00:08:51.279Z,99.90
2019-02-27T00:11:25.027Z,99.90
2019-02-27T00:14:00.023Z,99.90
2019-02-27T00:16:33.631Z,99.90
2019-02-27T00:19:19.304Z,99.90
2019-02-27T00:21:53.026Z,99.90
2019-02-27T00:24:30.675Z,99.90
2019-02-27T00:27:04.342Z,99.90
2019-02-27T00:29:41.183Z,99.90
2019-02-27T00:32:15.761Z,99.90
2019-02-27T00:34:50.423Z,99.90
2019-02-27T00:37:24.082Z,99.90
2019-02-27T00:40:06.269Z,99.90
2019-02-27T00:42:40.043Z,99.90
2019-02-27T00:45:18.390Z,99.90
2019-02-27T00:47:53.261Z,99.90
2019-02-27T00:50:27.661Z,99.90
2019-02-27T00:53:01.646Z,99.90
2019-02-27T00:55:39.549Z,99.90
2019-02-27T00:58:13.550Z,99.90
2019-02-27T01:00:59.380Z,99.90
2019-02-27T01:03:32.976Z,99.90
2019-02-27T01:06:06.626Z,99.90
2019-02-27T01:08:40.279Z,99.90
2019-02-27T01:11:18.175Z,99.90
2019-02-27T01:13:51.110Z,99.90
2019-02-27T01:16:24.822Z,99.90
2019-02-27T01:19:04.640Z,99.90
2019-02-27T01:21:37.878Z,99.90
2019-02-27T01:24:14.973Z,99.90
2019-02-27T01:26:49.074Z,99.90
2019-02-27T01:29:22.746Z,99.90
2019-02-27T01:31:57.684Z,99.90
2019-02-27T01:34:31.635Z,99.90
2019-02-27T01:37:07.649Z,99.90
2019-02-27T01:39:41.805Z,99.90
2019-02-27T01:42:16.575Z,99.90
2019-02-27T01:44:51.190Z,99.90
2019-02-27T01:47:24.858Z,99.90
2019-02-27T01:50:02.107Z,99.90
2019-02-27T01:52:35.757Z,99.90
2019-02-27T01:55:16.645Z,99.90
2019-02-27T01:57:50.273Z,99.90
2019-02-27T02:00:24.051Z,99.90
2019-02-27T02:02:57.707Z,99.90
2019-02-27T02:05:46.483Z,99.90
2019-02-27T02:08:20.179Z,99.90
2019-02-27T02:11:09.437Z,99.90
2019-02-27T02:13:51.397Z,99.90
2019-02-27T02:16:34.143Z,99.90
2019-02-27T02:19:22.017Z,99.90
2019-02-27T02:22:01.487Z,99.90
2019-02-27T02:24:43.802Z,99.90
2019-02-27T02:27:44.849Z,99.90
2019-02-27T02:30:36.334Z,99.90
2019-02-27T02:33:29.099Z,99.90
2019-02-27T02:36:35.633Z,99.90
2019-02-27T02:39:17.932Z,99.90
2019-02-27T02:42:14.220Z,99.90
2019-02-27T02:45:06.306Z,99.90
2019-02-27T02:47:45.562Z,99.90
2019-02-27T02:50:22.302Z,99.90
2019-02-27T02:53:18.332Z,99.90
2019-02-27T02:56:04.198Z,99.90
2019-02-27T03:01:35.467Z,99.90
2019-02-27T03:04:33.778Z,99.90
2019-02-27T03:07:16.155Z,99.90
2019-02-27T03:09:55.767Z,99.90
2019-02-27T03:12:50.386Z,99.90
2019-02-27T03:15:41.862Z,99.90
2019-02-27T03:18:30.472Z,99.90
2019-02-27T03:21:07.194Z,99.90
2019-02-27T03:24:03.397Z,99.90
2019-02-27T03:27:02.963Z,99.90
2019-02-27T03:30:02.396Z,99.90
2019-02-27T03:32:43.702Z,99.90
2019-02-27T03:35:35.528Z,99.90
2019-02-27T03:38:25.377Z,99.90
2019-02-27T03:41:26.255Z,99.90
2019-02-27T03:44:20.726Z,99.90
2019-02-27T03:47:26.997Z,99.90
2019-02-27T03:50:15.761Z,99.90
2019-02-27T03:53:24.725Z,99.90
2019-02-27T03:56:25.759Z,99.90
2019-02-27T03:59:29.807Z,99.90
2019-02-27T04:02:32.161Z,99.90
2019-02-27T04:05:41.802Z,99.90
2019-02-27T04:08:31.336Z,99.90
2019-02-27T04:11:06.060Z,99.90
2019-02-27T04:13:40.751Z,99.90
2019-02-27T04:16:17.863Z,99.90
2019-02-27T04:18:51.493Z,99.90
2019-02-27T04:21:26.082Z,99.90
2019-02-27T04:23:59.947Z,99.90
2019-02-27T04:26:34.001Z,99.90
2019-02-27T04:29:08.561Z,99.90
2019-02-27T04:31:46.139Z,99.90
2019-02-27T04:34:19.772Z,99.90
2019-02-27T04:37:00.048Z,99.90
2019-02-27T04:39:35.790Z,99.90
2019-02-27T04:42:17.183Z,99.90
2019-02-27T04:44:50.783Z,99.90
2019-02-27T04:47:29.204Z,99.90
2019-02-27T04:50:04.435Z,99.90
2019-02-27T04:52:42.533Z,99.90
2019-02-27T04:55:16.303Z,99.90
2019-02-27T04:57:57.319Z,99.90
2019-02-27T05:00:30.971Z,99.90
2019-02-27T05:03:08.108Z,99.90
2019-02-27T05:05:41.985Z,99.90
2019-02-27T05:08:20.011Z,99.90
2019-02-27T05:10:53.735Z,99.90
2019-02-27T05:13:34.527Z,99.90
2019-02-27T05:16:08.399Z,99.90
2019-02-27T05:18:45.997Z,99.90
2019-02-27T05:21:19.809Z,99.90
2019-02-27T05:23:53.509Z,99.90
2019-02-27T05:26:31.724Z,99.90
2019-02-27T05:29:05.655Z,99.90
2019-02-27T05:31:42.754Z,99.90
2019-02-27T05:34:16.725Z,99.90
2019-02-27T05:36:52.237Z,99.90
2019-02-27T05:39:25.858Z,99.90
2019-02-27T05:42:07.903Z,99.90
2019-02-27T05:44:41.590Z,99.90
2019-02-27T05:47:16.826Z,99.90
2019-02-27T05:49:50.914Z,99.90
2019-02-27T05:52:25.715Z,99.90
2019-02-27T05:54:59.646Z,99.90
2019-02-27T05:57:35.184Z,99.90
2019-02-27T06:00:14.693Z,99.90
2019-02-27T06:02:48.755Z,99.90
2019-02-27T06:05:22.516Z,99.90
2019-02-27T06:07:56.208Z,99.90
2019-02-27T06:10:29.823Z,99.90
2019-02-27T06:13:03.762Z,99.90
2019-02-27T06:15:37.355Z,99.90
2019-02-27T06:18:22.452Z,99.90
2019-02-27T06:20:53.416Z,99.90
2019-02-27T06:23:29.111Z,99.90
2019-02-27T06:26:02.851Z,99.90
2019-02-27T06:28:36.563Z,99.90
2019-02-27T06:31:39.830Z,99.90
2019-02-27T06:34:13.444Z,99.90
2019-02-27T06:36:50.886Z,99.90
2019-02-27T06:39:24.971Z,99.90
2019-02-27T06:42:03.783Z,99.90
2019-02-27T06:44:39.262Z,99.90
2019-02-27T06:47:16.281Z,99.90
2019-02-27T06:49:51.943Z,99.90
2019-02-27T06:52:25.153Z,99.90
2019-02-27T06:55:01.352Z,99.90
2019-02-27T06:57:35.077Z,99.90
2019-02-27T07:00:18.410Z,99.90
2019-02-27T07:02:55.124Z,99.90
2019-02-27T07:05:29.481Z,99.90
2019-02-27T07:08:05.200Z,99.90
2019-02-27T07:10:41.599Z,99.90
2019-02-27T07:13:15.309Z,99.90
2019-02-27T07:15:49.350Z,99.90
2019-02-27T07:18:23.027Z,99.90
2019-02-27T07:20:58.249Z,99.90
2019-02-27T07:23:32.302Z,99.90
2019-02-27T07:26:05.901Z,99.90
2019-02-27T07:28:43.375Z,96.70
2019-02-27T07:31:18.323Z,91.40
2019-02-27T07:33:51.675Z,72.90
2019-02-27T07:36:25.872Z,65.50
2019-02-27T07:39:00.366Z,61.90
2019-02-27T07:41:34.588Z,69.40
2019-02-27T07:44:08.774Z,65.40
2019-02-27T07:46:43.157Z,60.90
2019-02-27T07:49:17.420Z,57.30
2019-02-27T07:51:51.705Z,53.50
2019-02-27T07:54:28.818Z,54.20
2019-02-27T07:57:03.164Z,51.90
2019-02-27T07:59:38.246Z,50.20
2019-02-27T08:02:20.068Z,48.10
2019-02-27T08:04:54.757Z,48.60
2019-02-27T08:07:30.504Z,50.50
2019-02-27T08:10:07.916Z,51.20
2019-02-27T08:12:42.242Z,51.50
2019-02-27T08:15:18.111Z,52.70
2019-02-27T08:17:57.337Z,52.30
2019-02-27T08:20:28.160Z,53.80
2019-02-27T08:23:02.373Z,50.70
2019-02-27T08:25:36.659Z,47.00
2019-02-27T08:28:10.879Z,42.60
2019-02-27T08:30:45.157Z,40.00
2019-02-27T08:33:19.484Z,38.40
2019-02-27T08:35:53.770Z,36.60
2019-02-27T08:38:28.361Z,35.10
2019-02-27T08:41:02.849Z,33.50
2019-02-27T08:43:37.014Z,33.60
2019-02-27T08:46:11.500Z,33.20
2019-02-27T08:48:49.902Z,31.20
2019-02-27T08:51:21.863Z,31.90
2019-02-27T08:53:59.025Z,32.10
2019-02-27T08:56:31.909Z,33.30
2019-02-27T08:59:06.193Z,31.80
2019-02-27T09:01:40.813Z,31.10
2019-02-27T09:04:16.026Z,32.10
2019-02-27T09:06:50.216Z,32.20
2019-02-27T09:09:24.434Z,32.70
2019-02-27T09:11:58.745Z,31.90
2019-02-27T09:14:33.098Z,32.10
2019-02-27T09:17:07.498Z,32.30
2019-02-27T09:19:45.337Z,31.60
2019-02-27T09:22:17.608Z,31.50
2019-02-27T09:24:52.382Z,32.10
2019-02-27T09:27:26.912Z,31.70
2019-02-27T09:30:17.124Z,31.30
2019-02-27T09:32:51.409Z,32.30
2019-02-27T09:35:25.730Z,31.20
2019-02-27T09:38:03.340Z,30.80
2019-02-27T09:40:38.892Z,31.20
2019-02-27T09:43:13.600Z,30.20
2019-02-27T09:45:47.915Z,30.50
2019-02-27T09:48:31.111Z,31.00
2019-02-27T09:51:05.464Z,30.80
2019-02-27T09:53:39.540Z,31.50
2019-02-27T09:56:14.058Z,31.50
2019-02-27T09:58:52.096Z,31.90
2019-02-27T10:01:26.388Z,32.30
2019-02-27T10:04:04.170Z,32.60
2019-02-27T10:06:40.425Z,31.50
2019-02-27T10:09:18.136Z,32.10
2019-02-27T10:11:52.321Z,30.40
2019-02-27T10:14:26.430Z,31.10
2019-02-27T10:17:00.363Z,31.40
2019-02-27T10:19:34.576Z,29.60
2019-02-27T10:22:21.188Z,29.30
2019-02-27T10:24:55.106Z,28.80
2019-02-27T10:27:32.971Z,29.00
2019-02-27T10:30:16.699Z,28.70
2019-02-27T10:32:50.794Z,28.60
2019-02-27T10:35:26.793Z,26.70
2019-02-27T10:38:00.987Z,27.20
2019-02-27T10:40:35.038Z,27.90
2019-02-27T10:43:09.414Z,28.80
2019-02-27T10:45:48.222Z,29.60
2019-02-27T10:48:19.433Z,29.10
2019-02-27T10:50:58.792Z,29.70
2019-02-27T10:53:32.729Z,28.90
2019-02-27T10:56:08.296Z,31.00
2019-02-27T10:58:42.150Z,30.70
2019-02-27T11:01:16.076Z,30.90
2019-02-27T11:03:55.030Z,30.30
2019-02-27T11:06:33.998Z,29.40
2019-02-27T11:09:22.996Z,29.90
2019-02-27T11:11:56.981Z,29.50
2019-02-27T11:14:31.996Z,29.30
2019-02-27T11:17:07.543Z,29.90
2019-02-27T11:19:45.219Z,30.00
2019-02-27T11:22:19.270Z,30.00
2019-02-27T11:24:56.387Z,30.50
2019-02-27T11:27:30.427Z,30.40
2019-02-27T11:30:18.631Z,31.80
2019-02-27T11:32:56.885Z,31.50
2019-02-27T11:35:28.509Z,31.50
2019-02-27T11:38:02.829Z,31.70
2019-02-27T11:40:41.623Z,32.30
2019-02-27T11:43:13.556Z,31.80
2019-02-27T11:45:57.514Z,32.70
2019-02-27T11:48:29.590Z,33.20
2019-02-27T11:51:08.990Z,32.70
2019-02-27T11:53:43.472Z,33.40
2019-02-27T11:56:21.770Z,33.40
2019-02-27T11:58:56.002Z,33.10
2019-02-27T12:01:32.134Z,34.60
2019-02-27T12:04:06.474Z,35.30
2019-02-27T12:06:44.863Z,35.70
2019-02-27T12:09:19.516Z,36.50
2019-02-27T12:11:56.829Z,36.60
2019-02-27T12:14:31.117Z,37.20
2019-02-27T12:17:06.582Z,38.00
2019-02-27T12:19:44.405Z,38.30
2019-02-27T12:22:16.648Z,38.00
2019-02-27T12:24:56.089Z,39.10
2019-02-27T12:27:48.437Z,38.60
2019-02-27T12:30:09.444Z,39.00
2019-02-27T12:32:50.313Z,40.00
2019-02-27T12:35:26.421Z,41.10
2019-02-27T12:38:08.828Z,40.90
2019-02-27T12:40:43.170Z,40.20
2019-02-27T12:43:23.797Z,40.80
2019-02-27T12:46:00.895Z,41.10
2019-02-27T12:48:34.022Z,42.00
2019-02-27T12:51:08.447Z,41.80
2019-02-27T12:53:43.845Z,41.80
2019-02-27T12:56:18.074Z,42.80
2019-02-27T12:58:52.342Z,43.60
2019-02-27T13:01:30.607Z,43.20
2019-02-27T13:04:04.945Z,44.60
2019-02-27T13:06:42.601Z,44.40
2019-02-27T13:09:16.971Z,44.00
2019-02-27T13:11:51.271Z,44.40
2019-02-27T13:14:25.455Z,44.90
2019-02-27T13:17:03.123Z,44.70
2019-02-27T13:19:38.440Z,45.00
2019-02-27T13:22:13.361Z,45.70
2019-02-27T13:24:50.191Z,45.70
2019-02-27T13:27:25.217Z,44.70
2019-02-27T13:30:09.158Z,44.80
2019-02-27T13:32:42.120Z,44.90
2019-02-27T13:35:29.582Z,45.00
2019-02-27T13:38:04.043Z,44.50
2019-02-27T13:40:38.682Z,45.20
2019-02-27T13:43:12.943Z,45.20
2019-02-27T13:45:55.717Z,46.00
2019-02-27T13:48:29.929Z,46.00
2019-02-27T13:51:05.552Z,45.30
2019-02-27T13:53:39.821Z,45.30
2019-02-27T13:56:25.132Z,46.00
2019-02-27T13:58:58.647Z,46.50
2019-02-27T14:01:36.275Z,46.00
2019-02-27T14:04:10.550Z,45.40
2019-02-27T14:06:47.420Z,45.50
2019-02-27T14:09:20.798Z,45.10
2019-02-27T14:11:58.440Z,45.30
2019-02-27T14:14:31.078Z,45.30
2019-02-27T14:17:08.559Z,44.90
2019-02-27T14:19:42.861Z,45.10
2019-02-27T14:22:20.596Z,44.20
2019-02-27T14:24:54.906Z,44.20
2019-02-27T14:27:31.730Z,43.90
2019-02-27T14:30:08.998Z,43.20
2019-02-27T14:32:51.218Z,43.40
2019-02-27T14:35:25.465Z,44.20
2019-02-27T14:38:03.974Z,44.70
2019-02-27T14:40:41.130Z,45.90
2019-02-27T14:43:26.863Z,46.00
2019-02-27T14:45:59.828Z,46.30
2019-02-27T14:48:34.176Z,46.50
2019-02-27T14:51:19.502Z,45.70
2019-02-27T14:53:55.779Z,44.50
2019-02-27T14:56:32.350Z,43.10
2019-02-27T14:59:07.025Z,45.20
2019-02-27T15:01:43.361Z,45.00
2019-02-27T15:04:17.932Z,45.50
2019-02-27T15:06:52.218Z,45.50
2019-02-27T15:09:26.723Z,45.00
2019-02-27T15:12:01.114Z,44.90
2019-02-27T15:14:37.009Z,45.80
2019-02-27T15:17:11.216Z,45.80
2019-02-27T15:19:45.790Z,46.30
2019-02-27T15:22:20.542Z,47.10
2019-02-27T15:24:54.917Z,47.00
2019-02-27T15:27:29.153Z,47.50
2019-02-27T15:30:03.473Z,47.30
2019-02-27T15:32:38.704Z,47.00
2019-02-27T15:35:15.550Z,46.90
2019-02-27T15:38:02.053Z,47.50
2019-02-27T15:40:38.310Z,48.10
2019-02-27T15:43:16.975Z,48.40
2019-02-27T15:45:49.173Z,48.60
2019-02-27T15:48:23.553Z,49.40
2019-02-27T15:50:57.764Z,49.80
2019-02-27T15:53:31.953Z,50.70
2019-02-27T15:56:18.556Z,51.10
2019-02-27T15:58:53.200Z,52.40
2019-02-27T16:01:28.223Z,52.80
2019-02-27T16:04:03.309Z,54.00
2019-02-27T16:06:39.743Z,54.00
2019-02-27T16:09:16.380Z,55.90
2019-02-27T16:11:51.542Z,56.70
2019-02-27T16:14:26.404Z,57.70
2019-02-27T16:17:02.518Z,61.50
2019-02-27T16:19:36.799Z,68.00
2019-02-27T16:22:11.056Z,69.80
2019-02-27T16:24:45.368Z,72.70
2019-02-27T16:27:19.555Z,75.20
2019-02-27T16:29:54.137Z,78.70
2019-02-27T16:32:29.905Z,84.70
2019-02-27T16:35:07.857Z,84.30
2019-02-27T16:37:41.668Z,86.90
2019-02-27T16:40:18.883Z,87.00
2019-02-27T16:42:53.362Z,89.90
2019-02-27T16:45:35.913Z,92.00
2019-02-27T16:48:11.149Z,92.50
2019-02-27T16:50:48.269Z,95.40
2019-02-27T16:53:22.589Z,96.90
2019-02-27T16:56:02.924Z,99.90
2019-02-27T16:58:37.550Z,99.90
2019-02-27T17:01:16.235Z,99.90
2019-02-27T17:03:59.269Z,99.90
2019-02-27T17:06:25.536Z,99.90
2019-02-27T17:08:59.135Z,99.90
2019-02-27T17:11:47.972Z,99.90
2019-02-27T17:14:25.160Z,99.90
2019-02-27T17:16:58.823Z,99.90
2019-02-27T17:19:37.343Z,99.90
2019-02-27T17:22:11.065Z,99.90
2019-02-27T17:24:47.443Z,99.90
2019-02-27T17:27:21.132Z,99.90
2019-02-27T17:30:01.176Z,99.90
2019-02-27T17:32:34.902Z,99.90
2019-02-27T17:35:09.048Z,99.90
2019-02-27T17:37:42.787Z,99.90
2019-02-27T17:40:17.556Z,99.90
2019-02-27T17:42:53.517Z,99.90
2019-02-27T17:45:31.093Z,99.90
2019-02-27T17:48:04.697Z,99.90
2019-02-27T17:50:39.408Z,99.90
2019-02-27T17:53:13.013Z,99.90
2019-02-27T17:55:51.414Z,99.90
2019-02-27T17:58:25.053Z,99.90
2019-02-27T18:01:03.816Z,99.90
2019-02-27T18:03:41.531Z,99.90
2019-02-27T18:06:16.990Z,99.90
2019-02-27T18:08:52.410Z,99.90
2019-02-27T18:11:28.609Z,99.90
2019-02-27T18:14:02.522Z,99.90
2019-02-27T18:16:38.571Z,99.90
2019-02-27T18:19:16.357Z,99.90
2019-02-27T18:21:47.575Z,99.90
2019-02-27T18:24:33.165Z,99.90
2019-02-27T18:27:15.455Z,99.90
2019-02-27T18:29:49.327Z,99.90
2019-02-27T18:32:26.975Z,99.90
2019-02-27T18:35:00.621Z,99.90
2019-02-27T18:40:17.711Z,99.90
2019-02-27T18:42:55.228Z,99.90
2019-02-27T18:45:30.175Z,99.90
2019-02-27T18:48:03.838Z,99.90
2019-02-27T18:50:40.435Z,99.90
2019-02-27T18:53:14.095Z,99.90
2019-02-27T18:55:51.372Z,99.90
2019-02-27T18:58:25.349Z,99.90
2019-02-27T19:01:00.487Z,99.90
2019-02-27T19:03:34.270Z,99.90
2019-02-27T19:06:12.097Z,99.90
2019-02-27T19:08:43.885Z,99.90
2019-02-27T19:11:22.424Z,99.90
2019-02-27T19:13:56.579Z,99.90
2019-02-27T19:16:42.399Z,99.90
2019-02-27T19:19:16.210Z,99.90
2019-02-27T19:21:53.167Z,99.90
2019-02-27T19:24:27.672Z,99.90
2019-02-27T19:27:01.411Z,99.90
2019-02-27T19:29:35.479Z,99.90
2019-02-27T19:32:09.079Z,99.90
2019-02-27T19:34:44.740Z,99.90
2019-02-27T19:37:19.199Z,99.90
2019-02-27T19:39:57.611Z,99.90
2019-02-27T19:42:31.382Z,99.90
2019-02-27T19:45:12.255Z,99.90
2019-02-27T19:47:46.058Z,99.90
2019-02-27T19:50:22.108Z,99.90
2019-02-27T19:52:56.332Z,99.90
2019-02-27T19:55:31.986Z,99.90
2019-02-27T19:58:06.108Z,99.90
2019-02-27T20:00:48.155Z,99.90
2019-02-27T20:03:18.831Z,99.90
2019-02-27T20:05:56.133Z,99.90
2019-02-27T20:08:29.956Z,99.90
2019-02-27T20:11:09.984Z,99.90
2019-02-27T20:13:43.647Z,99.90
2019-02-27T20:16:17.733Z,99.90
2019-02-27T20:18:55.123Z,99.90
2019-02-27T20:21:28.381Z,99.90
2019-02-27T20:24:14.233Z,99.90
2019-02-27T20:26:44.437Z,99.90
2019-02-27T20:29:16.574Z,99.90
2019-02-27T20:31:51.479Z,99.90
2019-02-27T20:34:25.578Z,99.90
2019-02-27T20:36:59.202Z,99.90
2019-02-27T20:39:32.945Z,99.90
2019-02-27T20:42:06.834Z,99.90
2019-02-27T20:44:40.846Z,99.90
2019-02-27T20:47:17.619Z,99.90
2019-02-27T20:49:51.346Z,99.90
2019-02-27T20:52:25.414Z,99.90
2019-02-27T20:55:00.119Z,99.90
2019-02-27T20:57:34.030Z,99.90
2019-02-27T21:00:15.925Z,99.90
2019-02-27T21:02:56.884Z,99.90
2019-02-27T21:05:32.647Z,99.90
2019-02-27T21:08:11.232Z,99.90
2019-02-27T21:10:44.897Z,99.90
2019-02-27T21:13:21.758Z,99.90
2019-02-27T21:15:55.355Z,99.90
2019-02-27T21:18:32.439Z,99.90
2019-02-27T21:21:04.421Z,99.90
2019-02-27T21:23:40.176Z,99.90
2019-02-27T21:26:13.913Z,99.90
2019-02-27T21:28:58.091Z,99.90
2019-02-27T21:31:27.539Z,99.90
2019-02-27T21:34:00.106Z,99.90
2019-02-27T21:36:36.491Z,99.90
2019-02-27T21:39:09.133Z,99.90
2019-02-27T21:41:46.265Z,99.90
2019-02-27T21:44:25.426Z,99.90
2019-02-27T21:46:56.693Z,99.90
2019-02-27T21:49:32.122Z,99.90
2019-02-27T21:52:13.613Z,99.90
2019-02-27T21:54:47.361Z,99.90
2019-02-27T21:57:27.133Z,99.90
2019-02-27T22:00:01.203Z,99.90
2019-02-27T22:02:38.330Z,99.90
2019-02-27T22:05:18.487Z,99.90
2019-02-27T22:07:48.652Z,99.90
2019-02-27T22:10:22.387Z,99.90
2019-02-27T22:12:55.997Z,99.90
2019-02-27T22:15:31.324Z,99.90
2019-02-27T22:18:05.087Z,99.90
2019-02-27T22:20:38.769Z,99.90
2019-02-27T22:23:12.886Z,99.90
2019-02-27T22:25:47.122Z,99.90
2019-02-27T22:28:21.096Z,99.90
2019-02-27T22:31:06.025Z,99.90
2019-02-27T22:33:36.600Z,99.90
2019-02-27T22:36:12.788Z,99.90
2019-02-27T22:38:45.594Z,99.90
2019-02-27T22:41:19.614Z,99.90
2019-02-27T22:43:56.862Z,99.90
2019-02-27T22:46:30.540Z,99.90
2019-02-27T22:49:04.525Z,99.90
2019-02-27T22:51:38.209Z,99.90
2019-02-27T22:54:12.132Z,99.90
2019-02-27T22:56:50.003Z,99.90
2019-02-27T22:59:21.102Z,99.90
2019-02-27T23:01:58.435Z,99.90
2019-02-27T23:04:32.195Z,99.90
2019-02-27T23:07:09.090Z,99.90
2019-02-27T23:09:42.852Z,99.90
2019-02-27T23:12:16.824Z,99.90
2019-02-27T23:14:53.802Z,99.90
2019-02-27T23:17:27.996Z,99.90
2019-02-27T23:20:01.697Z,99.90
2019-02-27T23:22:35.705Z,99.90
2019-02-27T23:25:09.403Z,99.90
2019-02-27T23:27:46.165Z,99.90
2019-02-27T23:30:19.860Z,99.90
2019-02-27T23:32:53.526Z,99.90
2019-02-27T23:35:27.236Z,99.90
2019-02-27T23:38:03.303Z,99.90
2019-02-27T23:40:36.335Z,99.90
2019-02-27T23:43:10.099Z,99.90
2019-02-27T23:45:44.542Z,99.90
2019-02-27T23:48:18.725Z,99.90
2019-02-27T23:50:52.808Z,99.90
2019-02-27T23:53:27.098Z,99.90
2019-02-27T23:56:01.511Z,99.90
2019-02-27T23:58:35.635Z,99.90
